VIPER22 EGUL-EGUL

Flight info

Callsign VIPER22
Flight time N/A
Altitude 3000
Route DCT EGUL
Aircraft F22/M-SDGRY/S

Departure

Time 2026-05-05 18:45
Airport RAF Lakenheath (EGUL)

Arrival

Time N/A
Airport RAF Lakenheath (EGUL)
Time Latitude Longitude Altitude Speed Heading
2026-05-05 18:41 52.41360 0.57893 36 ft 0 kts 194°
2026-05-05 18:44 52.41358 0.57891 36 ft 2 kts 213°
2026-05-05 18:44 52.41370 0.57788 35 ft 5 kts 287°
2026-05-05 18:44 52.41411 0.57776 36 ft 12 kts 20°
2026-05-05 18:45 52.41518 0.57821 35 ft 11 kts
2026-05-05 18:45 52.41593 0.57785 36 ft 11 kts 323°
2026-05-05 18:45 52.41559 0.57578 36 ft 57 kts 235°
2026-05-05 18:45 52.40836 0.55885 1114 ft 270 kts 234°
2026-05-05 18:46 52.40018 0.51891 876 ft 526 kts 265°
2026-05-05 18:46 52.39565 0.44456 891 ft 748 kts 265°
2026-05-05 18:46 52.39298 0.35316 1014 ft 837 kts 275°
2026-05-05 18:46 52.40028 0.25600 1786 ft 888 kts 284°
2026-05-05 18:47 52.41954 0.15827 1553 ft 906 kts 293°
2026-05-05 18:47 52.44504 0.06390 480 ft 886 kts 301°
2026-05-05 18:47 52.47649 -0.02123 4433 ft 869 kts 303°
2026-05-05 18:47 52.50494 -0.09438 14127 ft 736 kts 302°
2026-05-05 18:48 52.53303 -0.16482 24369 ft 747 kts 302°
2026-05-05 18:48 52.56435 -0.24340 32320 ft 883 kts 301°
2026-05-05 18:48 52.59908 -0.33111 39273 ft 937 kts 302°
2026-05-05 18:48 52.63463 -0.42096 45026 ft 989 kts 302°
2026-05-05 18:49 52.67450 -0.52168 43917 ft 1083 kts 302°
2026-05-05 18:49 52.70918 -0.59996 30225 ft 770 kts 314°
2026-05-05 18:49 52.73598 -0.68262 8973 ft 1090 kts 267°
2026-05-05 18:49 52.71775 -0.80621 3937 ft 1010 kts 252°
2026-05-05 18:50 52.71354 -0.90711 4279 ft 892 kts 310°
2026-05-05 18:50 52.75514 -0.98061 8093 ft 731 kts 316°
2026-05-05 18:50 52.79399 -1.04934 13217 ft 893 kts 311°
2026-05-05 18:50 52.83693 -1.13058 715 ft 287 kts 314°
2026-05-05 18:51 52.83807 -1.13347 3095 ft 29 kts 122°
2026-05-05 18:51 52.83639 -1.12948 886 ft 474 kts 74°
2026-05-05 18:51 52.84222 -1.09318 3889 ft 292 kts 73°
2026-05-05 18:51 52.84738 -1.06388 4514 ft 241 kts 71°